sensor_id;sensor_type;location;lat;lon;timestamp;temperature;humidity
67641;SHT31;54434;50.096;20.082;2023-07-13T06:45:44;29.83;54.27
67641;SHT31;54434;50.096;20.082;2023-07-13T09:46:51;29.25;50.29
67641;SHT31;54434;50.096;20.082;2023-07-13T09:49:33;28.92;51.09
67641;SHT31;54434;50.096;20.082;2023-07-13T09:52:15;28.71;51.13
67641;SHT31;54434;50.096;20.082;2023-07-13T09:54:53;28.53;51.75
67641;SHT31;54434;50.096;20.082;2023-07-13T09:57:31;28.30;52.26
67641;SHT31;54434;50.096;20.082;2023-07-13T10:00:24;28.09;52.39
67641;SHT31;54434;50.096;20.082;2023-07-13T10:03:04;27.94;52.88
67641;SHT31;54434;50.096;20.082;2023-07-13T10:05:53;27.72;53.44
67641;SHT31;54434;50.096;20.082;2023-07-13T10:08:45;27.47;53.89
67641;SHT31;54434;50.096;20.082;2023-07-13T10:11:25;27.33;55.25
67641;SHT31;54434;50.096;20.082;2023-07-13T10:14:14;27.21;56.22
67641;SHT31;54434;50.096;20.082;2023-07-13T10:17:01;27.05;57.13
67641;SHT31;54434;50.096;20.082;2023-07-13T10:19:45;26.87;57.62
67641;SHT31;54434;50.096;20.082;2023-07-13T10:22:26;26.71;57.38
67641;SHT31;54434;50.096;20.082;2023-07-13T10:25:17;26.52;57.15
67641;SHT31;54434;50.096;20.082;2023-07-13T10:27:58;26.34;57.36
67641;SHT31;54434;50.096;20.082;2023-07-13T10:30:44;26.19;58.04
67641;SHT31;54434;50.096;20.082;2023-07-13T10:33:22;26.08;59.86
67641;SHT31;54434;50.096;20.082;2023-07-13T10:36:14;25.97;60.39
67641;SHT31;54434;50.096;20.082;2023-07-13T10:39:04;25.85;61.28
67641;SHT31;54434;50.096;20.082;2023-07-13T10:41:48;25.73;62.16
67641;SHT31;54434;50.096;20.082;2023-07-13T10:44:31;25.54;62.89
67641;SHT31;54434;50.096;20.082;2023-07-13T10:47:11;25.38;63.81
67641;SHT31;54434;50.096;20.082;2023-07-13T10:49:52;25.20;64.07
67641;SHT31;54434;50.096;20.082;2023-07-13T10:52:47;24.96;64.92
67641;SHT31;54434;50.096;20.082;2023-07-13T10:55:40;24.77;65.64
67641;SHT31;54434;50.096;20.082;2023-07-13T10:58:34;24.62;66.58
67641;SHT31;54434;50.096;20.082;2023-07-13T11:01:14;24.46;67.65
67641;SHT31;54434;50.096;20.082;2023-07-13T11:03:59;24.33;68.45
67641;SHT31;54434;50.096;20.082;2023-07-13T11:06:39;24.19;69.11
67641;SHT31;54434;50.096;20.082;2023-07-13T11:09:35;24.08;70.13
67641;SHT31;54434;50.096;20.082;2023-07-13T11:15:32;23.84;71.33
67641;SHT31;54434;50.096;20.082;2023-07-13T11:18:25;23.68;71.57
67641;SHT31;54434;50.096;20.082;2023-07-13T11:21:15;23.50;71.98
67641;SHT31;54434;50.096;20.082;2023-07-13T11:24:14;23.22;72.34
67641;SHT31;54434;50.096;20.082;2023-07-13T11:26:53;23.04;72.83
67641;SHT31;54434;50.096;20.082;2023-07-13T11:29:37;22.90;73.29
67641;SHT31;54434;50.096;20.082;2023-07-13T11:32:30;22.79;73.72
67641;SHT31;54434;50.096;20.082;2023-07-13T11:35:12;22.69;74.16
67641;SHT31;54434;50.096;20.082;2023-07-13T11:37:56;22.60;74.49
67641;SHT31;54434;50.096;20.082;2023-07-13T11:40:32;22.38;74.94
67641;SHT31;54434;50.096;20.082;2023-07-13T11:43:11;22.23;75.16
67641;SHT31;54434;50.096;20.082;2023-07-13T11:45:50;22.10;75.43
67641;SHT31;54434;50.096;20.082;2023-07-13T11:48:28;21.96;76.16
67641;SHT31;54434;50.096;20.082;2023-07-13T11:51:20;21.68;76.46
67641;SHT31;54434;50.096;20.082;2023-07-13T11:54:05;20.94;78.05
67641;SHT31;54434;50.096;20.082;2023-07-13T11:57:01;20.07;78.70
67641;SHT31;54434;50.096;20.082;2023-07-13T11:59:57;19.33;79.09
67641;SHT31;54434;50.096;20.082;2023-07-13T12:02:39;18.95;79.45
67641;SHT31;54434;50.096;20.082;2023-07-13T12:05:19;18.64;79.53
67641;SHT31;54434;50.096;20.082;2023-07-13T12:07:56;18.39;79.94
67641;SHT31;54434;50.096;20.082;2023-07-13T12:10:58;18.22;80.20
67641;SHT31;54434;50.096;20.082;2023-07-13T12:13:45;18.06;80.03
67641;SHT31;54434;50.096;20.082;2023-07-13T12:16:28;17.95;80.34
67641;SHT31;54434;50.096;20.082;2023-07-13T12:19:14;17.86;80.45
67641;SHT31;54434;50.096;20.082;2023-07-13T12:21:57;17.83;80.47
67641;SHT31;54434;50.096;20.082;2023-07-13T12:24:33;17.82;80.79
67641;SHT31;54434;50.096;20.082;2023-07-13T12:27:20;17.79;80.75
67641;SHT31;54434;50.096;20.082;2023-07-13T12:30:01;17.76;80.73
67641;SHT31;54434;50.096;20.082;2023-07-13T12:33:08;17.74;80.91
67641;SHT31;54434;50.096;20.082;2023-07-13T12:35:50;17.73;80.99
67641;SHT31;54434;50.096;20.082;2023-07-13T12:38:29;17.74;80.96
67641;SHT31;54434;50.096;20.082;2023-07-13T12:41:07;17.76;81.05
67641;SHT31;54434;50.096;20.082;2023-07-13T12:43:44;17.78;81.24
67641;SHT31;54434;50.096;20.082;2023-07-13T12:46:23;17.80;81.19
67641;SHT31;54434;50.096;20.082;2023-07-13T12:49:05;17.83;81.44
67641;SHT31;54434;50.096;20.082;2023-07-13T12:51:55;17.82;81.29
67641;SHT31;54434;50.096;20.082;2023-07-13T12:54:33;17.84;81.18
67641;SHT31;54434;50.096;20.082;2023-07-13T12:57:26;17.89;81.35
67641;SHT31;54434;50.096;20.082;2023-07-13T13:00:03;17.92;81.17
67641;SHT31;54434;50.096;20.082;2023-07-13T13:03:00;18.02;81.58
67641;SHT31;54434;50.096;20.082;2023-07-13T13:06:02;18.11;81.64
67641;SHT31;54434;50.096;20.082;2023-07-13T13:08:55;18.20;81.85
67641;SHT31;54434;50.096;20.082;2023-07-13T13:11:33;18.27;81.76
67641;SHT31;54434;50.096;20.082;2023-07-13T13:14:09;18.37;81.93
67641;SHT31;54434;50.096;20.082;2023-07-13T13:16:48;18.44;81.80
67641;SHT31;54434;50.096;20.082;2023-07-13T13:19:27;18.50;81.70
67641;SHT31;54434;50.096;20.082;2023-07-13T13:22:05;18.56;81.84
67641;SHT31;54434;50.096;20.082;2023-07-13T13:24:42;18.62;81.68
67641;SHT31;54434;50.096;20.082;2023-07-13T13:27:21;18.70;81.81
67641;SHT31;54434;50.096;20.082;2023-07-13T13:29:59;18.80;81.77
67641;SHT31;54434;50.096;20.082;2023-07-13T13:32:37;18.89;81.60
67641;SHT31;54434;50.096;20.082;2023-07-13T13:35:15;18.98;81.11
67641;SHT31;54434;50.096;20.082;2023-07-13T13:37:53;19.07;80.92
67641;SHT31;54434;50.096;20.082;2023-07-13T13:40:29;19.16;81.16
67641;SHT31;54434;50.096;20.082;2023-07-13T13:43:14;19.24;81.01
67641;SHT31;54434;50.096;20.082;2023-07-13T13:45:59;19.32;80.83
67641;SHT31;54434;50.096;20.082;2023-07-13T13:48:42;19.42;81.03
67641;SHT31;54434;50.096;20.082;2023-07-13T13:51:20;19.51;80.91
67641;SHT31;54434;50.096;20.082;2023-07-13T13:53:59;19.58;80.60
67641;SHT31;54434;50.096;20.082;2023-07-13T13:56:35;19.69;80.66
67641;SHT31;54434;50.096;20.082;2023-07-13T13:59:11;19.80;80.57
67641;SHT31;54434;50.096;20.082;2023-07-13T14:01:49;19.89;80.03
67641;SHT31;54434;50.096;20.082;2023-07-13T14:04:27;19.96;79.67
67641;SHT31;54434;50.096;20.082;2023-07-13T14:07:05;20.05;79.45
67641;SHT31;54434;50.096;20.082;2023-07-13T14:09:42;20.09;79.26
67641;SHT31;54434;50.096;20.082;2023-07-13T14:12:18;20.12;79.40
67641;SHT31;54434;50.096;20.082;2023-07-13T14:14:56;20.12;79.08
67641;SHT31;54434;50.096;20.082;2023-07-13T14:17:33;20.14;78.95
67641;SHT31;54434;50.096;20.082;2023-07-13T14:20:15;20.19;78.82
67641;SHT31;54434;50.096;20.082;2023-07-13T14:22:55;20.32;78.93
67641;SHT31;54434;50.096;20.082;2023-07-13T14:25:32;20.51;78.85
67641;SHT31;54434;50.096;20.082;2023-07-13T14:28:18;20.75;78.68
67641;SHT31;54434;50.096;20.082;2023-07-13T14:30:58;21.02;78.39
67641;SHT31;54434;50.096;20.082;2023-07-13T14:33:35;21.13;77.29
67641;SHT31;54434;50.096;20.082;2023-07-13T14:36:29;21.27;76.88
67641;SHT31;54434;50.096;20.082;2023-07-13T14:39:14;21.37;76.36
67641;SHT31;54434;50.096;20.082;2023-07-13T14:41:54;21.41;76.01
67641;SHT31;54434;50.096;20.082;2023-07-13T14:44:32;21.45;75.84
67641;SHT31;54434;50.096;20.082;2023-07-13T14:47:09;21.49;75.71
67641;SHT31;54434;50.096;20.082;2023-07-13T14:49:45;21.53;75.34
67641;SHT31;54434;50.096;20.082;2023-07-13T14:52:23;21.49;75.04
67641;SHT31;54434;50.096;20.082;2023-07-13T14:55:00;21.55;75.52
67641;SHT31;54434;50.096;20.082;2023-07-13T14:57:37;21.65;75.77
67641;SHT31;54434;50.096;20.082;2023-07-13T15:00:18;21.70;75.84
67641;SHT31;54434;50.096;20.082;2023-07-13T15:02:57;21.70;75.55
67641;SHT31;54434;50.096;20.082;2023-07-13T15:05:39;21.81;75.53
67641;SHT31;54434;50.096;20.082;2023-07-13T15:08:15;21.95;74.77
67641;SHT31;54434;50.096;20.082;2023-07-13T15:10:57;22.06;74.58
67641;SHT31;54434;50.096;20.082;2023-07-13T15:13:32;22.08;74.46
67641;SHT31;54434;50.096;20.082;2023-07-13T15:16:15;22.17;74.17
67641;SHT31;54434;50.096;20.082;2023-07-13T15:18:57;22.24;73.99
67641;SHT31;54434;50.096;20.082;2023-07-13T15:21:34;22.30;73.80
67641;SHT31;54434;50.096;20.082;2023-07-13T15:24:11;22.26;73.22
67641;SHT31;54434;50.096;20.082;2023-07-13T15:26:48;22.14;73.07
67641;SHT31;54434;50.096;20.082;2023-07-13T15:29:24;22.04;73.31
67641;SHT31;54434;50.096;20.082;2023-07-13T15:32:01;22.00;73.55
67641;SHT31;54434;50.096;20.082;2023-07-13T15:34:41;21.98;73.81
67641;SHT31;54434;50.096;20.082;2023-07-13T15:37:18;21.91;73.52
67641;SHT31;54434;50.096;20.082;2023-07-13T15:39:55;21.72;73.01
67641;SHT31;54434;50.096;20.082;2023-07-13T15:42:32;21.52;72.72
67641;SHT31;54434;50.096;20.082;2023-07-13T15:45:18;21.39;72.86
67641;SHT31;54434;50.096;20.082;2023-07-13T15:47:57;21.32;72.75
67641;SHT31;54434;50.096;20.082;2023-07-13T15:50:39;21.28;72.69
67641;SHT31;54434;50.096;20.082;2023-07-13T15:53:23;21.26;73.09
67641;SHT31;54434;50.096;20.082;2023-07-13T15:56:06;21.31;72.94
67641;SHT31;54434;50.096;20.082;2023-07-13T15:58:54;21.33;73.05
67641;SHT31;54434;50.096;20.082;2023-07-13T16:01:31;21.33;73.06
67641;SHT31;54434;50.096;20.082;2023-07-13T16:04:08;21.29;73.14
67641;SHT31;54434;50.096;20.082;2023-07-13T16:06:46;21.24;73.18
67641;SHT31;54434;50.096;20.082;2023-07-13T16:09:23;21.17;73.44
67641;SHT31;54434;50.096;20.082;2023-07-13T16:12:01;21.13;73.81
67641;SHT31;54434;50.096;20.082;2023-07-13T16:14:43;21.08;74.18
67641;SHT31;54434;50.096;20.082;2023-07-13T16:17:21;21.00;74.66
67641;SHT31;54434;50.096;20.082;2023-07-13T16:19:57;20.95;74.75
67641;SHT31;54434;50.096;20.082;2023-07-13T16:22:35;20.93;74.48
67641;SHT31;54434;50.096;20.082;2023-07-13T16:25:18;20.88;74.29
67641;SHT31;54434;50.096;20.082;2023-07-13T16:27:57;20.89;74.09
67641;SHT31;54434;50.096;20.082;2023-07-13T16:30:34;20.84;74.00
67641;SHT31;54434;50.096;20.082;2023-07-13T16:33:10;20.76;74.22
67641;SHT31;54434;50.096;20.082;2023-07-13T16:35:47;20.71;74.32
67641;SHT31;54434;50.096;20.082;2023-07-13T16:38:24;20.74;74.66
67641;SHT31;54434;50.096;20.082;2023-07-13T16:41:02;20.71;74.27
67641;SHT31;54434;50.096;20.082;2023-07-13T16:43:40;20.61;74.66
67641;SHT31;54434;50.096;20.082;2023-07-13T16:46:21;20.50;74.64
67641;SHT31;54434;50.096;20.082;2023-07-13T16:48:58;20.40;74.47
67641;SHT31;54434;50.096;20.082;2023-07-13T16:51:34;20.33;74.73
67641;SHT31;54434;50.096;20.082;2023-07-13T16:54:11;20.26;74.75
67641;SHT31;54434;50.096;20.082;2023-07-13T16:56:50;20.17;74.89
67641;SHT31;54434;50.096;20.082;2023-07-13T16:59:30;20.08;75.28
67641;SHT31;54434;50.096;20.082;2023-07-13T17:02:26;19.96;75.42
67641;SHT31;54434;50.096;20.082;2023-07-13T17:05:10;19.85;75.64
67641;SHT31;54434;50.096;20.082;2023-07-13T17:07:48;19.78;75.99
67641;SHT31;54434;50.096;20.082;2023-07-13T17:10:25;19.72;76.09
67641;SHT31;54434;50.096;20.082;2023-07-13T17:13:02;19.64;76.25
67641;SHT31;54434;50.096;20.082;2023-07-13T17:15:50;19.58;76.48
67641;SHT31;54434;50.096;20.082;2023-07-13T17:18:29;19.51;76.59
67641;SHT31;54434;50.096;20.082;2023-07-13T17:21:13;19.47;76.77
67641;SHT31;54434;50.096;20.082;2023-07-13T17:23:50;19.41;76.93
67641;SHT31;54434;50.096;20.082;2023-07-13T17:26:27;19.38;77.27
67641;SHT31;54434;50.096;20.082;2023-07-13T17:29:03;19.32;77.70
67641;SHT31;54434;50.096;20.082;2023-07-13T17:31:41;19.27;77.91
67641;SHT31;54434;50.096;20.082;2023-07-13T17:34:19;19.24;77.96
67641;SHT31;54434;50.096;20.082;2023-07-13T17:36:56;19.21;78.10
67641;SHT31;54434;50.096;20.082;2023-07-13T17:39:33;19.21;78.17
67641;SHT31;54434;50.096;20.082;2023-07-13T17:42:12;19.21;78.30
67641;SHT31;54434;50.096;20.082;2023-07-13T17:44:48;19.23;78.26
67641;SHT31;54434;50.096;20.082;2023-07-13T17:47:26;19.24;78.31
67641;SHT31;54434;50.096;20.082;2023-07-13T17:50:07;19.24;78.37
67641;SHT31;54434;50.096;20.082;2023-07-13T17:52:48;19.25;78.34
67641;SHT31;54434;50.096;20.082;2023-07-13T17:55:25;19.26;78.26
67641;SHT31;54434;50.096;20.082;2023-07-13T17:58:02;19.28;78.25
67641;SHT31;54434;50.096;20.082;2023-07-13T18:00:39;19.26;78.42
67641;SHT31;54434;50.096;20.082;2023-07-13T18:03:22;19.25;78.59
67641;SHT31;54434;50.096;20.082;2023-07-13T18:06:05;19.27;78.52
67641;SHT31;54434;50.096;20.082;2023-07-13T18:08:52;19.26;78.66
67641;SHT31;54434;50.096;20.082;2023-07-13T18:11:37;19.25;78.50
67641;SHT31;54434;50.096;20.082;2023-07-13T18:14:14;19.25;78.49
67641;SHT31;54434;50.096;20.082;2023-07-13T18:16:52;19.23;78.53
67641;SHT31;54434;50.096;20.082;2023-07-13T18:19:35;19.21;78.59
67641;SHT31;54434;50.096;20.082;2023-07-13T18:22:16;19.18;78.65
67641;SHT31;54434;50.096;20.082;2023-07-13T18:24:52;19.15;78.96
67641;SHT31;54434;50.096;20.082;2023-07-13T18:27:29;19.09;79.28
67641;SHT31;54434;50.096;20.082;2023-07-13T18:30:08;19.06;79.33
67641;SHT31;54434;50.096;20.082;2023-07-13T18:32:49;19.01;79.38
67641;SHT31;54434;50.096;20.082;2023-07-13T18:35:30;18.97;79.40
67641;SHT31;54434;50.096;20.082;2023-07-13T18:38:12;18.92;79.28
67641;SHT31;54434;50.096;20.082;2023-07-13T18:40:55;18.89;79.36
67641;SHT31;54434;50.096;20.082;2023-07-13T18:43:32;18.82;79.76
67641;SHT31;54434;50.096;20.082;2023-07-13T18:46:15;18.75;79.94
67641;SHT31;54434;50.096;20.082;2023-07-13T18:48:57;18.67;80.09
67641;SHT31;54434;50.096;20.082;2023-07-13T18:51:34;18.57;80.39
67641;SHT31;54434;50.096;20.082;2023-07-13T18:54:14;18.51;80.52
67641;SHT31;54434;50.096;20.082;2023-07-13T18:56:52;18.46;80.57
67641;SHT31;54434;50.096;20.082;2023-07-13T18:59:28;18.41;80.70
67641;SHT31;54434;50.096;20.082;2023-07-13T19:02:11;18.36;80.80
67641;SHT31;54434;50.096;20.082;2023-07-13T19:04:51;18.30;80.98
67641;SHT31;54434;50.096;20.082;2023-07-13T19:07:31;18.25;81.16
67641;SHT31;54434;50.096;20.082;2023-07-13T19:12:53;18.14;81.84
67641;SHT31;54434;50.096;20.082;2023-07-13T19:15:34;18.13;81.90
67641;SHT31;54434;50.096;20.082;2023-07-13T19:18:13;18.11;81.98
67641;SHT31;54434;50.096;20.082;2023-07-13T19:20:55;18.12;82.05
67641;SHT31;54434;50.096;20.082;2023-07-13T19:23:37;18.13;82.08
67641;SHT31;54434;50.096;20.082;2023-07-13T19:26:20;18.12;82.13
67641;SHT31;54434;50.096;20.082;2023-07-13T19:29:00;18.12;82.24
67641;SHT31;54434;50.096;20.082;2023-07-13T19:31:37;18.11;82.34
67641;SHT31;54434;50.096;20.082;2023-07-13T19:34:19;18.12;82.51
67641;SHT31;54434;50.096;20.082;2023-07-13T19:37:00;18.09;82.71
67641;SHT31;54434;50.096;20.082;2023-07-13T19:39:55;18.09;82.80
67641;SHT31;54434;50.096;20.082;2023-07-13T19:42:33;18.09;82.81
67641;SHT31;54434;50.096;20.082;2023-07-13T19:45:16;18.11;82.97
67641;SHT31;54434;50.096;20.082;2023-07-13T19:47:55;18.15;83.14
67641;SHT31;54434;50.096;20.082;2023-07-13T19:50:32;18.18;83.24
67641;SHT31;54434;50.096;20.082;2023-07-13T19:53:17;18.19;83.23
67641;SHT31;54434;50.096;20.082;2023-07-13T19:55:54;18.17;83.11
67641;SHT31;54434;50.096;20.082;2023-07-13T19:58:32;18.15;83.19
67641;SHT31;54434;50.096;20.082;2023-07-13T20:01:08;18.16;83.29
67641;SHT31;54434;50.096;20.082;2023-07-13T20:03:45;18.14;83.07
67641;SHT31;54434;50.096;20.082;2023-07-13T20:06:28;18.08;82.97
67641;SHT31;54434;50.096;20.082;2023-07-13T20:09:13;18.03;82.89
67641;SHT31;54434;50.096;20.082;2023-07-13T20:12:15;17.97;82.88
67641;SHT31;54434;50.096;20.082;2023-07-13T20:14:54;17.90;82.89
67641;SHT31;54434;50.096;20.082;2023-07-13T20:17:33;17.85;83.00
67641;SHT31;54434;50.096;20.082;2023-07-13T20:20:19;17.82;83.02
67641;SHT31;54434;50.096;20.082;2023-07-13T20:23:07;17.78;83.06
67641;SHT31;54434;50.096;20.082;2023-07-13T20:25:47;17.75;83.10
67641;SHT31;54434;50.096;20.082;2023-07-13T20:28:24;17.70;83.15
67641;SHT31;54434;50.096;20.082;2023-07-13T20:31:01;17.67;83.25
67641;SHT31;54434;50.096;20.082;2023-07-13T20:33:41;17.64;83.52
67641;SHT31;54434;50.096;20.082;2023-07-13T20:36:17;17.60;83.50
67641;SHT31;54434;50.096;20.082;2023-07-13T20:38:54;17.56;83.50
67641;SHT31;54434;50.096;20.082;2023-07-13T20:41:30;17.52;83.64
67641;SHT31;54434;50.096;20.082;2023-07-13T20:44:07;17.51;83.75
67641;SHT31;54434;50.096;20.082;2023-07-13T20:46:43;17.50;83.86
67641;SHT31;54434;50.096;20.082;2023-07-13T20:49:20;17.46;83.64
67641;SHT31;54434;50.096;20.082;2023-07-13T20:52:00;17.43;83.81
67641;SHT31;54434;50.096;20.082;2023-07-13T20:54:42;17.40;83.87
67641;SHT31;54434;50.096;20.082;2023-07-13T20:57:20;17.40;84.06
67641;SHT31;54434;50.096;20.082;2023-07-13T20:59:57;17.41;84.28
67641;SHT31;54434;50.096;20.082;2023-07-13T21:02:33;17.40;84.18
67641;SHT31;54434;50.096;20.082;2023-07-13T21:05:18;17.36;84.04
67641;SHT31;54434;50.096;20.082;2023-07-13T21:07:57;17.31;83.96
67641;SHT31;54434;50.096;20.082;2023-07-13T21:10:34;17.27;83.92
67641;SHT31;54434;50.096;20.082;2023-07-13T21:13:11;17.23;83.88
67641;SHT31;54434;50.096;20.082;2023-07-13T21:15:51;17.17;83.80
67641;SHT31;54434;50.096;20.082;2023-07-13T21:18:28;17.15;83.83
67641;SHT31;54434;50.096;20.082;2023-07-13T21:21:04;17.09;84.08
67641;SHT31;54434;50.096;20.082;2023-07-13T21:23:45;17.07;84.28
67641;SHT31;54434;50.096;20.082;2023-07-13T21:26:24;17.05;84.20
67641;SHT31;54434;50.096;20.082;2023-07-13T21:29:00;17.04;84.17
67641;SHT31;54434;50.096;20.082;2023-07-13T21:31:37;17.02;84.10
67641;SHT31;54434;50.096;20.082;2023-07-13T21:34:17;17.00;84.22
67641;SHT31;54434;50.096;20.082;2023-07-13T21:36:55;16.97;84.29
67641;SHT31;54434;50.096;20.082;2023-07-13T21:39:32;16.95;84.35
67641;SHT31;54434;50.096;20.082;2023-07-13T21:42:10;16.93;84.44
67641;SHT31;54434;50.096;20.082;2023-07-13T21:44:47;16.91;84.50
67641;SHT31;54434;50.096;20.082;2023-07-13T21:47:23;16.91;84.51
67641;SHT31;54434;50.096;20.082;2023-07-13T21:50:00;16.91;84.51
67641;SHT31;54434;50.096;20.082;2023-07-13T21:52:38;16.89;84.46
67641;SHT31;54434;50.096;20.082;2023-07-13T21:55:19;16.86;84.49
67641;SHT31;54434;50.096;20.082;2023-07-13T21:57:58;16.83;84.56
67641;SHT31;54434;50.096;20.082;2023-07-13T22:00:36;16.81;84.68
67641;SHT31;54434;50.096;20.082;2023-07-13T22:03:19;16.78;84.67
67641;SHT31;54434;50.096;20.082;2023-07-13T22:05:59;16.74;84.60
67641;SHT31;54434;50.096;20.082;2023-07-13T22:08:37;16.69;84.67
67641;SHT31;54434;50.096;20.082;2023-07-13T22:11:15;16.67;84.70
67641;SHT31;54434;50.096;20.082;2023-07-13T22:13:54;16.64;84.63
67641;SHT31;54434;50.096;20.082;2023-07-13T22:16:30;16.59;84.60
67641;SHT31;54434;50.096;20.082;2023-07-13T22:19:11;16.58;84.59
67641;SHT31;54434;50.096;20.082;2023-07-13T22:21:50;16.55;84.57
67641;SHT31;54434;50.096;20.082;2023-07-13T22:24:27;16.51;84.47
67641;SHT31;54434;50.096;20.082;2023-07-13T22:27:08;16.46;84.57
67641;SHT31;54434;50.096;20.082;2023-07-13T22:29:47;16.43;84.73
67641;SHT31;54434;50.096;20.082;2023-07-13T22:32:26;16.40;84.79
67641;SHT31;54434;50.096;20.082;2023-07-13T22:35:12;16.35;84.80
67641;SHT31;54434;50.096;20.082;2023-07-13T22:37:49;16.32;84.84
67641;SHT31;54434;50.096;20.082;2023-07-13T22:40:30;16.28;84.81
67641;SHT31;54434;50.096;20.082;2023-07-13T22:43:17;16.24;84.80
67641;SHT31;54434;50.096;20.082;2023-07-13T22:45:58;16.19;84.88
67641;SHT31;54434;50.096;20.082;2023-07-13T22:48:40;16.17;84.99
67641;SHT31;54434;50.096;20.082;2023-07-13T22:51:23;16.12;85.03
67641;SHT31;54434;50.096;20.082;2023-07-13T22:54:01;16.08;84.95
67641;SHT31;54434;50.096;20.082;2023-07-13T22:56:42;16.06;85.01
67641;SHT31;54434;50.096;20.082;2023-07-13T22:59:19;16.02;85.10
67641;SHT31;54434;50.096;20.082;2023-07-13T23:01:56;15.98;85.19
67641;SHT31;54434;50.096;20.082;2023-07-13T23:04:35;15.96;85.21
67641;SHT31;54434;50.096;20.082;2023-07-13T23:07:12;15.95;85.27
67641;SHT31;54434;50.096;20.082;2023-07-13T23:09:51;15.93;85.32
67641;SHT31;54434;50.096;20.082;2023-07-13T23:12:38;15.91;85.40
67641;SHT31;54434;50.096;20.082;2023-07-13T23:15:17;15.89;85.44
67641;SHT31;54434;50.096;20.082;2023-07-13T23:17:53;15.87;85.47
67641;SHT31;54434;50.096;20.082;2023-07-13T23:20:32;15.84;85.50
67641;SHT31;54434;50.096;20.082;2023-07-13T23:23:10;15.81;85.57
67641;SHT31;54434;50.096;20.082;2023-07-13T23:25:50;15.80;85.77
67641;SHT31;54434;50.096;20.082;2023-07-13T23:28:27;15.78;85.81
67641;SHT31;54434;50.096;20.082;2023-07-13T23:31:03;15.76;85.84
67641;SHT31;54434;50.096;20.082;2023-07-13T23:33:42;15.74;85.93
67641;SHT31;54434;50.096;20.082;2023-07-13T23:36:19;15.74;85.96
67641;SHT31;54434;50.096;20.082;2023-07-13T23:38:57;15.71;86.04
67641;SHT31;54434;50.096;20.082;2023-07-13T23:41:33;15.71;86.23
67641;SHT31;54434;50.096;20.082;2023-07-13T23:44:10;15.72;86.40
67641;SHT31;54434;50.096;20.082;2023-07-13T23:46:49;15.72;86.40
67641;SHT31;54434;50.096;20.082;2023-07-13T23:49:29;15.71;86.39
67641;SHT31;54434;50.096;20.082;2023-07-13T23:52:11;15.69;86.34
67641;SHT31;54434;50.096;20.082;2023-07-13T23:54:47;15.67;86.31
67641;SHT31;54434;50.096;20.082;2023-07-13T23:57:24;15.65;86.26
